sensor_id;sensor_type;location;lat;lon;timestamp;P1;durP1;ratioP1;P2;durP2;ratioP2
3633;SDS011;1833;42.718;23.270;2023-06-14T00:02:07;20.73;;;19.33;;
3633;SDS011;1833;42.718;23.270;2023-06-14T00:04:34;21.13;;;19.63;;
3633;SDS011;1833;42.718;23.270;2023-06-14T00:07:03;21.10;;;19.57;;
3633;SDS011;1833;42.718;23.270;2023-06-14T00:09:33;21.37;;;19.83;;
3633;SDS011;1833;42.718;23.270;2023-06-14T00:12:00;20.97;;;19.57;;
3633;SDS011;1833;42.718;23.270;2023-06-14T00:14:29;20.87;;;19.23;;
3633;SDS011;1833;42.718;23.270;2023-06-14T00:16:56;21.70;;;20.10;;
3633;SDS011;1833;42.718;23.270;2023-06-14T00:19:23;22.50;;;20.17;;
3633;SDS011;1833;42.718;23.270;2023-06-14T00:21:51;23.13;;;21.10;;
3633;SDS011;1833;42.718;23.270;2023-06-14T00:24:19;24.50;;;22.37;;
3633;SDS011;1833;42.718;23.270;2023-06-14T00:26:46;22.33;;;20.67;;
3633;SDS011;1833;42.718;23.270;2023-06-14T00:29:14;21.47;;;19.97;;
3633;SDS011;1833;42.718;23.270;2023-06-14T00:31:42;22.90;;;20.80;;
3633;SDS011;1833;42.718;23.270;2023-06-14T00:34:09;20.60;;;19.27;;
3633;SDS011;1833;42.718;23.270;2023-06-14T00:36:37;23.30;;;21.43;;
3633;SDS011;1833;42.718;23.270;2023-06-14T00:39:04;22.10;;;20.50;;
3633;SDS011;1833;42.718;23.270;2023-06-14T00:41:31;23.00;;;21.20;;
3633;SDS011;1833;42.718;23.270;2023-06-14T00:43:58;21.67;;;19.97;;
3633;SDS011;1833;42.718;23.270;2023-06-14T00:46:26;23.50;;;21.33;;
3633;SDS011;1833;42.718;23.270;2023-06-14T00:48:54;22.80;;;21.20;;
3633;SDS011;1833;42.718;23.270;2023-06-14T00:51:22;22.63;;;21.13;;
3633;SDS011;1833;42.718;23.270;2023-06-14T00:53:50;23.50;;;21.80;;
3633;SDS011;1833;42.718;23.270;2023-06-14T00:56:17;22.93;;;21.27;;
3633;SDS011;1833;42.718;23.270;2023-06-14T00:58:45;22.77;;;21.13;;
3633;SDS011;1833;42.718;23.270;2023-06-14T01:01:13;23.40;;;21.77;;
3633;SDS011;1833;42.718;23.270;2023-06-14T01:03:40;23.10;;;21.40;;
3633;SDS011;1833;42.718;23.270;2023-06-14T01:06:12;23.17;;;21.57;;
3633;SDS011;1833;42.718;23.270;2023-06-14T01:08:43;23.13;;;21.13;;
3633;SDS011;1833;42.718;23.270;2023-06-14T01:11:12;22.93;;;20.83;;
3633;SDS011;1833;42.718;23.270;2023-06-14T01:13:43;22.10;;;20.40;;
3633;SDS011;1833;42.718;23.270;2023-06-14T01:16:10;24.17;;;22.17;;
3633;SDS011;1833;42.718;23.270;2023-06-14T01:18:38;23.23;;;21.43;;
3633;SDS011;1833;42.718;23.270;2023-06-14T01:21:15;22.83;;;21.23;;
3633;SDS011;1833;42.718;23.270;2023-06-14T01:23:48;23.03;;;20.90;;
3633;SDS011;1833;42.718;23.270;2023-06-14T01:26:18;22.27;;;20.47;;
3633;SDS011;1833;42.718;23.270;2023-06-14T01:28:45;23.40;;;21.67;;
3633;SDS011;1833;42.718;23.270;2023-06-14T01:31:16;22.50;;;20.80;;
3633;SDS011;1833;42.718;23.270;2023-06-14T01:33:43;23.00;;;21.40;;
3633;SDS011;1833;42.718;23.270;2023-06-14T01:36:11;22.60;;;21.00;;
3633;SDS011;1833;42.718;23.270;2023-06-14T01:38:38;24.10;;;22.37;;
3633;SDS011;1833;42.718;23.270;2023-06-14T01:41:07;22.73;;;21.03;;
3633;SDS011;1833;42.718;23.270;2023-06-14T01:43:35;23.67;;;21.63;;
3633;SDS011;1833;42.718;23.270;2023-06-14T01:46:03;23.23;;;21.57;;
3633;SDS011;1833;42.718;23.270;2023-06-14T01:48:30;23.90;;;21.83;;
3633;SDS011;1833;42.718;23.270;2023-06-14T01:50:58;23.30;;;21.67;;
3633;SDS011;1833;42.718;23.270;2023-06-14T01:53:25;23.83;;;22.03;;
3633;SDS011;1833;42.718;23.270;2023-06-14T01:55:52;24.67;;;21.87;;
3633;SDS011;1833;42.718;23.270;2023-06-14T01:58:21;24.23;;;22.33;;
3633;SDS011;1833;42.718;23.270;2023-06-14T02:00:49;26.80;;;21.23;;
3633;SDS011;1833;42.718;23.270;2023-06-14T02:03:16;22.47;;;20.30;;
3633;SDS011;1833;42.718;23.270;2023-06-14T02:05:44;22.63;;;20.93;;
3633;SDS011;1833;42.718;23.270;2023-06-14T02:08:11;23.00;;;21.30;;
3633;SDS011;1833;42.718;23.270;2023-06-14T02:10:38;22.80;;;21.10;;
3633;SDS011;1833;42.718;23.270;2023-06-14T02:13:06;22.70;;;21.00;;
3633;SDS011;1833;42.718;23.270;2023-06-14T02:15:34;23.83;;;21.87;;
3633;SDS011;1833;42.718;23.270;2023-06-14T02:18:02;22.67;;;21.07;;
3633;SDS011;1833;42.718;23.270;2023-06-14T02:20:29;23.40;;;21.50;;
3633;SDS011;1833;42.718;23.270;2023-06-14T02:22:56;23.10;;;20.93;;
3633;SDS011;1833;42.718;23.270;2023-06-14T02:25:24;23.03;;;21.13;;
3633;SDS011;1833;42.718;23.270;2023-06-14T02:27:53;23.00;;;21.10;;
3633;SDS011;1833;42.718;23.270;2023-06-14T02:30:20;23.17;;;21.67;;
3633;SDS011;1833;42.718;23.270;2023-06-14T02:32:49;22.43;;;20.93;;
3633;SDS011;1833;42.718;23.270;2023-06-14T02:35:18;23.00;;;21.40;;
3633;SDS011;1833;42.718;23.270;2023-06-14T02:37:47;21.90;;;20.40;;
3633;SDS011;1833;42.718;23.270;2023-06-14T02:40:14;21.83;;;20.33;;
3633;SDS011;1833;42.718;23.270;2023-06-14T02:42:41;22.07;;;20.57;;
3633;SDS011;1833;42.718;23.270;2023-06-14T02:45:09;21.70;;;19.93;;
3633;SDS011;1833;42.718;23.270;2023-06-14T02:47:36;22.70;;;20.70;;
3633;SDS011;1833;42.718;23.270;2023-06-14T02:50:05;23.23;;;21.43;;
3633;SDS011;1833;42.718;23.270;2023-06-14T02:52:33;24.70;;;22.63;;
3633;SDS011;1833;42.718;23.270;2023-06-14T02:55:00;23.00;;;21.17;;
3633;SDS011;1833;42.718;23.270;2023-06-14T02:57:27;22.83;;;21.13;;
3633;SDS011;1833;42.718;23.270;2023-06-14T02:59:55;22.57;;;20.87;;
3633;SDS011;1833;42.718;23.270;2023-06-14T03:02:22;22.83;;;21.10;;
3633;SDS011;1833;42.718;23.270;2023-06-14T03:04:49;22.50;;;20.80;;
3633;SDS011;1833;42.718;23.270;2023-06-14T03:07:18;20.60;;;19.10;;
3633;SDS011;1833;42.718;23.270;2023-06-14T03:09:45;23.07;;;21.47;;
3633;SDS011;1833;42.718;23.270;2023-06-14T03:12:13;23.00;;;21.30;;
3633;SDS011;1833;42.718;23.270;2023-06-14T03:14:41;21.80;;;20.20;;
3633;SDS011;1833;42.718;23.270;2023-06-14T03:17:10;22.80;;;21.00;;
3633;SDS011;1833;42.718;23.270;2023-06-14T03:19:38;22.47;;;20.83;;
3633;SDS011;1833;42.718;23.270;2023-06-14T03:22:06;22.00;;;20.30;;
3633;SDS011;1833;42.718;23.270;2023-06-14T03:24:35;23.63;;;21.53;;
3633;SDS011;1833;42.718;23.270;2023-06-14T03:27:02;21.00;;;19.30;;
3633;SDS011;1833;42.718;23.270;2023-06-14T03:29:30;21.97;;;19.93;;
3633;SDS011;1833;42.718;23.270;2023-06-14T03:31:58;22.40;;;20.60;;
3633;SDS011;1833;42.718;23.270;2023-06-14T03:34:25;21.40;;;19.70;;
3633;SDS011;1833;42.718;23.270;2023-06-14T03:36:53;21.90;;;20.13;;
3633;SDS011;1833;42.718;23.270;2023-06-14T03:39:20;19.90;;;18.60;;
3633;SDS011;1833;42.718;23.270;2023-06-14T03:41:49;20.87;;;19.40;;
3633;SDS011;1833;42.718;23.270;2023-06-14T03:44:16;23.20;;;20.93;;
3633;SDS011;1833;42.718;23.270;2023-06-14T03:46:44;22.70;;;20.80;;
3633;SDS011;1833;42.718;23.270;2023-06-14T03:49:11;21.80;;;20.03;;
3633;SDS011;1833;42.718;23.270;2023-06-14T03:51:39;21.83;;;19.93;;
3633;SDS011;1833;42.718;23.270;2023-06-14T03:54:06;22.07;;;20.47;;
3633;SDS011;1833;42.718;23.270;2023-06-14T03:56:33;20.70;;;19.00;;
3633;SDS011;1833;42.718;23.270;2023-06-14T03:59:02;24.23;;;22.13;;
3633;SDS011;1833;42.718;23.270;2023-06-14T04:01:29;21.87;;;20.37;;
3633;SDS011;1833;42.718;23.270;2023-06-14T04:03:58;21.00;;;19.60;;
3633;SDS011;1833;42.718;23.270;2023-06-14T04:06:26;22.13;;;20.33;;
3633;SDS011;1833;42.718;23.270;2023-06-14T04:08:57;20.47;;;19.07;;
3633;SDS011;1833;42.718;23.270;2023-06-14T04:11:29;23.93;;;21.90;;
3633;SDS011;1833;42.718;23.270;2023-06-14T04:13:57;25.10;;;22.90;;
3633;SDS011;1833;42.718;23.270;2023-06-14T04:16:26;23.90;;;21.70;;
3633;SDS011;1833;42.718;23.270;2023-06-14T04:18:54;20.90;;;19.00;;
3633;SDS011;1833;42.718;23.270;2023-06-14T04:21:23;21.73;;;19.90;;
3633;SDS011;1833;42.718;23.270;2023-06-14T04:23:51;21.63;;;19.97;;
3633;SDS011;1833;42.718;23.270;2023-06-14T04:26:20;23.70;;;21.60;;
3633;SDS011;1833;42.718;23.270;2023-06-14T04:28:48;23.33;;;20.93;;
3633;SDS011;1833;42.718;23.270;2023-06-14T04:31:17;23.27;;;21.27;;
3633;SDS011;1833;42.718;23.270;2023-06-14T04:33:47;21.30;;;19.60;;
3633;SDS011;1833;42.718;23.270;2023-06-14T04:36:15;22.63;;;20.87;;
3633;SDS011;1833;42.718;23.270;2023-06-14T04:38:42;22.30;;;20.60;;
3633;SDS011;1833;42.718;23.270;2023-06-14T04:41:11;22.90;;;21.30;;
3633;SDS011;1833;42.718;23.270;2023-06-14T04:43:38;22.60;;;20.87;;
3633;SDS011;1833;42.718;23.270;2023-06-14T04:46:05;25.50;;;23.00;;
3633;SDS011;1833;42.718;23.270;2023-06-14T04:48:35;24.57;;;21.93;;
3633;SDS011;1833;42.718;23.270;2023-06-14T04:51:07;23.93;;;21.70;;
3633;SDS011;1833;42.718;23.270;2023-06-14T04:53:34;21.83;;;19.83;;
3633;SDS011;1833;42.718;23.270;2023-06-14T04:56:02;23.27;;;21.43;;
3633;SDS011;1833;42.718;23.270;2023-06-14T04:58:29;22.60;;;21.00;;
3633;SDS011;1833;42.718;23.270;2023-06-14T05:00:56;22.50;;;20.80;;
3633;SDS011;1833;42.718;23.270;2023-06-14T05:03:24;22.97;;;21.33;;
3633;SDS011;1833;42.718;23.270;2023-06-14T05:05:52;25.20;;;22.67;;
3633;SDS011;1833;42.718;23.270;2023-06-14T05:08:21;23.90;;;21.93;;
3633;SDS011;1833;42.718;23.270;2023-06-14T05:10:49;26.50;;;24.10;;
3633;SDS011;1833;42.718;23.270;2023-06-14T05:13:17;25.43;;;23.40;;
3633;SDS011;1833;42.718;23.270;2023-06-14T05:15:44;27.63;;;25.03;;
3633;SDS011;1833;42.718;23.270;2023-06-14T05:18:12;37.87;;;32.80;;
3633;SDS011;1833;42.718;23.270;2023-06-14T05:20:40;48.23;;;33.90;;
3633;SDS011;1833;42.718;23.270;2023-06-14T05:23:08;25.43;;;23.13;;
3633;SDS011;1833;42.718;23.270;2023-06-14T05:25:41;29.20;;;26.47;;
3633;SDS011;1833;42.718;23.270;2023-06-14T05:28:08;27.13;;;24.70;;
3633;SDS011;1833;42.718;23.270;2023-06-14T05:30:37;29.13;;;26.40;;
3633;SDS011;1833;42.718;23.270;2023-06-14T05:33:04;25.80;;;23.60;;
3633;SDS011;1833;42.718;23.270;2023-06-14T05:35:31;25.33;;;23.23;;
3633;SDS011;1833;42.718;23.270;2023-06-14T05:37:59;24.60;;;22.47;;
3633;SDS011;1833;42.718;23.270;2023-06-14T05:40:26;32.93;;;29.40;;
3633;SDS011;1833;42.718;23.270;2023-06-14T05:42:55;26.10;;;24.00;;
3633;SDS011;1833;42.718;23.270;2023-06-14T05:45:22;60.13;;;48.47;;
3633;SDS011;1833;42.718;23.270;2023-06-14T05:47:49;29.33;;;26.70;;
3633;SDS011;1833;42.718;23.270;2023-06-14T05:50:17;29.17;;;26.30;;
3633;SDS011;1833;42.718;23.270;2023-06-14T05:52:44;45.93;;;38.60;;
3633;SDS011;1833;42.718;23.270;2023-06-14T05:55:11;59.67;;;50.33;;
3633;SDS011;1833;42.718;23.270;2023-06-14T05:57:39;57.63;;;47.57;;
3633;SDS011;1833;42.718;23.270;2023-06-14T06:00:09;35.17;;;31.80;;
3633;SDS011;1833;42.718;23.270;2023-06-14T06:02:39;69.03;;;54.03;;
3633;SDS011;1833;42.718;23.270;2023-06-14T06:05:07;47.93;;;41.53;;
3633;SDS011;1833;42.718;23.270;2023-06-14T06:07:35;48.67;;;38.70;;
3633;SDS011;1833;42.718;23.270;2023-06-14T06:10:02;30.10;;;27.23;;
3633;SDS011;1833;42.718;23.270;2023-06-14T06:12:30;31.63;;;26.23;;
3633;SDS011;1833;42.718;23.270;2023-06-14T06:14:57;94.50;;;69.93;;
3633;SDS011;1833;42.718;23.270;2023-06-14T06:17:26;28.60;;;25.60;;
3633;SDS011;1833;42.718;23.270;2023-06-14T06:19:54;101.80;;;75.90;;
3633;SDS011;1833;42.718;23.270;2023-06-14T06:22:21;25.10;;;22.70;;
3633;SDS011;1833;42.718;23.270;2023-06-14T06:24:48;27.43;;;25.13;;
3633;SDS011;1833;42.718;23.270;2023-06-14T06:27:15;24.63;;;22.53;;
3633;SDS011;1833;42.718;23.270;2023-06-14T06:29:44;26.80;;;24.23;;
3633;SDS011;1833;42.718;23.270;2023-06-14T06:32:11;24.13;;;21.93;;
3633;SDS011;1833;42.718;23.270;2023-06-14T06:34:40;25.93;;;23.93;;
3633;SDS011;1833;42.718;23.270;2023-06-14T06:37:07;26.00;;;23.77;;
3633;SDS011;1833;42.718;23.270;2023-06-14T06:39:34;24.90;;;22.80;;
3633;SDS011;1833;42.718;23.270;2023-06-14T06:42:01;26.40;;;23.77;;
3633;SDS011;1833;42.718;23.270;2023-06-14T06:44:29;23.97;;;21.80;;
3633;SDS011;1833;42.718;23.270;2023-06-14T06:46:57;24.37;;;22.27;;
3633;SDS011;1833;42.718;23.270;2023-06-14T06:49:24;25.30;;;23.23;;
3633;SDS011;1833;42.718;23.270;2023-06-14T06:52:02;26.90;;;24.50;;
3633;SDS011;1833;42.718;23.270;2023-06-14T06:54:29;26.20;;;23.80;;
3633;SDS011;1833;42.718;23.270;2023-06-14T06:56:57;27.43;;;25.13;;
3633;SDS011;1833;42.718;23.270;2023-06-14T06:59:25;27.13;;;24.83;;
3633;SDS011;1833;42.718;23.270;2023-06-14T07:01:52;28.50;;;25.67;;
3633;SDS011;1833;42.718;23.270;2023-06-14T07:04:19;28.97;;;26.37;;
3633;SDS011;1833;42.718;23.270;2023-06-14T07:06:46;32.03;;;28.80;;
3633;SDS011;1833;42.718;23.270;2023-06-14T07:09:15;30.90;;;28.10;;
3633;SDS011;1833;42.718;23.270;2023-06-14T07:11:44;31.27;;;28.47;;
3633;SDS011;1833;42.718;23.270;2023-06-14T07:14:12;32.87;;;29.63;;
3633;SDS011;1833;42.718;23.270;2023-06-14T07:16:39;31.90;;;28.90;;
3633;SDS011;1833;42.718;23.270;2023-06-14T07:19:08;31.40;;;28.70;;
3633;SDS011;1833;42.718;23.270;2023-06-14T07:21:35;33.00;;;29.47;;
3633;SDS011;1833;42.718;23.270;2023-06-14T07:24:04;31.67;;;28.37;;
3633;SDS011;1833;42.718;23.270;2023-06-14T07:26:33;32.60;;;29.50;;
3633;SDS011;1833;42.718;23.270;2023-06-14T07:29:00;32.87;;;29.70;;
3633;SDS011;1833;42.718;23.270;2023-06-14T07:31:28;33.23;;;30.20;;
3633;SDS011;1833;42.718;23.270;2023-06-14T07:33:55;32.47;;;29.30;;
3633;SDS011;1833;42.718;23.270;2023-06-14T07:36:22;35.30;;;29.83;;
3633;SDS011;1833;42.718;23.270;2023-06-14T07:38:50;31.80;;;28.60;;
3633;SDS011;1833;42.718;23.270;2023-06-14T07:41:17;31.60;;;28.70;;
3633;SDS011;1833;42.718;23.270;2023-06-14T07:43:46;31.57;;;28.60;;
3633;SDS011;1833;42.718;23.270;2023-06-14T07:46:14;35.20;;;31.83;;
3633;SDS011;1833;42.718;23.270;2023-06-14T07:48:41;37.47;;;31.20;;
3633;SDS011;1833;42.718;23.270;2023-06-14T07:51:08;34.57;;;31.17;;
3633;SDS011;1833;42.718;23.270;2023-06-14T07:53:35;33.70;;;30.53;;
3633;SDS011;1833;42.718;23.270;2023-06-14T07:56:03;34.20;;;30.70;;
3633;SDS011;1833;42.718;23.270;2023-06-14T07:58:30;34.33;;;30.93;;
3633;SDS011;1833;42.718;23.270;2023-06-14T08:00:59;35.07;;;31.90;;
3633;SDS011;1833;42.718;23.270;2023-06-14T08:03:31;34.43;;;31.27;;
3633;SDS011;1833;42.718;23.270;2023-06-14T08:05:58;33.23;;;30.10;;
3633;SDS011;1833;42.718;23.270;2023-06-14T08:08:25;31.73;;;28.70;;
3633;SDS011;1833;42.718;23.270;2023-06-14T08:10:53;33.33;;;29.80;;
3633;SDS011;1833;42.718;23.270;2023-06-14T08:13:20;34.33;;;30.73;;
3633;SDS011;1833;42.718;23.270;2023-06-14T08:15:47;34.37;;;30.93;;
3633;SDS011;1833;42.718;23.270;2023-06-14T08:18:16;37.90;;;33.03;;
3633;SDS011;1833;42.718;23.270;2023-06-14T08:20:43;41.40;;;34.73;;
3633;SDS011;1833;42.718;23.270;2023-06-14T08:23:10;33.60;;;30.20;;
3633;SDS011;1833;42.718;23.270;2023-06-14T08:25:38;35.43;;;31.60;;
3633;SDS011;1833;42.718;23.270;2023-06-14T08:28:05;33.90;;;30.77;;
3633;SDS011;1833;42.718;23.270;2023-06-14T08:30:33;33.77;;;30.47;;
3633;SDS011;1833;42.718;23.270;2023-06-14T08:33:00;42.60;;;33.60;;
3633;SDS011;1833;42.718;23.270;2023-06-14T08:35:29;40.13;;;35.90;;
3633;SDS011;1833;42.718;23.270;2023-06-14T08:37:56;40.73;;;35.60;;
3633;SDS011;1833;42.718;23.270;2023-06-14T08:40:23;35.87;;;32.43;;
3633;SDS011;1833;42.718;23.270;2023-06-14T08:42:51;42.80;;;33.90;;
3633;SDS011;1833;42.718;23.270;2023-06-14T08:45:18;35.83;;;32.33;;
3633;SDS011;1833;42.718;23.270;2023-06-14T08:47:46;37.27;;;33.67;;
3633;SDS011;1833;42.718;23.270;2023-06-14T08:50:18;36.37;;;33.00;;
3633;SDS011;1833;42.718;23.270;2023-06-14T08:52:47;35.57;;;32.33;;
3633;SDS011;1833;42.718;23.270;2023-06-14T08:55:16;36.10;;;32.80;;
3633;SDS011;1833;42.718;23.270;2023-06-14T08:57:45;36.37;;;32.90;;
3633;SDS011;1833;42.718;23.270;2023-06-14T09:00:13;36.63;;;33.13;;
3633;SDS011;1833;42.718;23.270;2023-06-14T09:02:40;37.23;;;33.43;;
3633;SDS011;1833;42.718;23.270;2023-06-14T09:05:08;34.50;;;31.40;;
3633;SDS011;1833;42.718;23.270;2023-06-14T09:07:38;35.10;;;31.70;;
3633;SDS011;1833;42.718;23.270;2023-06-14T09:10:09;35.03;;;31.47;;
3633;SDS011;1833;42.718;23.270;2023-06-14T09:12:36;34.90;;;31.50;;
3633;SDS011;1833;42.718;23.270;2023-06-14T09:15:05;35.87;;;32.47;;
3633;SDS011;1833;42.718;23.270;2023-06-14T09:17:33;37.20;;;33.47;;
3633;SDS011;1833;42.718;23.270;2023-06-14T09:20:01;35.67;;;32.13;;
3633;SDS011;1833;42.718;23.270;2023-06-14T09:22:31;35.73;;;32.43;;
3633;SDS011;1833;42.718;23.270;2023-06-14T09:24:59;36.63;;;32.90;;
3633;SDS011;1833;42.718;23.270;2023-06-14T09:27:27;35.10;;;31.90;;
3633;SDS011;1833;42.718;23.270;2023-06-14T09:29:55;35.88;;;31.95;;
3633;SDS011;1833;42.718;23.270;2023-06-14T09:32:22;38.05;;;34.38;;
3633;SDS011;1833;42.718;23.270;2023-06-14T09:34:50;42.20;;;37.60;;
3633;SDS011;1833;42.718;23.270;2023-06-14T09:37:26;37.03;;;33.37;;
3633;SDS011;1833;42.718;23.270;2023-06-14T09:39:54;37.13;;;33.37;;
3633;SDS011;1833;42.718;23.270;2023-06-14T09:42:21;36.30;;;32.80;;
3633;SDS011;1833;42.718;23.270;2023-06-14T09:44:53;39.50;;;35.43;;
3633;SDS011;1833;42.718;23.270;2023-06-14T09:47:21;36.50;;;32.80;;
3633;SDS011;1833;42.718;23.270;2023-06-14T09:49:48;50.37;;;33.43;;
3633;SDS011;1833;42.718;23.270;2023-06-14T09:52:16;37.90;;;31.70;;
3633;SDS011;1833;42.718;23.270;2023-06-14T09:54:45;34.80;;;31.00;;
3633;SDS011;1833;42.718;23.270;2023-06-14T09:57:13;35.87;;;32.47;;
3633;SDS011;1833;42.718;23.270;2023-06-14T09:59:41;36.37;;;32.83;;
3633;SDS011;1833;42.718;23.270;2023-06-14T10:02:11;36.83;;;33.23;;
3633;SDS011;1833;42.718;23.270;2023-06-14T10:04:41;37.13;;;33.60;;
3633;SDS011;1833;42.718;23.270;2023-06-14T10:07:13;37.58;;;33.97;;
3633;SDS011;1833;42.718;23.270;2023-06-14T10:09:41;37.67;;;33.10;;
3633;SDS011;1833;42.718;23.270;2023-06-14T10:12:13;33.72;;;30.52;;
3633;SDS011;1833;42.718;23.270;2023-06-14T10:14:45;35.33;;;31.75;;
3633;SDS011;1833;42.718;23.270;2023-06-14T10:17:17;36.72;;;32.65;;
3633;SDS011;1833;42.718;23.270;2023-06-14T10:19:48;36.83;;;33.22;;
3633;SDS011;1833;42.718;23.270;2023-06-14T10:22:18;37.13;;;33.42;;
3633;SDS011;1833;42.718;23.270;2023-06-14T10:24:48;38.17;;;33.22;;
3633;SDS011;1833;42.718;23.270;2023-06-14T10:27:15;35.80;;;32.17;;
3633;SDS011;1833;42.718;23.270;2023-06-14T10:30:04;37.15;;;33.75;;
3633;SDS011;1833;42.718;23.270;2023-06-14T10:32:33;37.10;;;33.60;;
3633;SDS011;1833;42.718;23.270;2023-06-14T10:35:01;35.80;;;32.50;;
3633;SDS011;1833;42.718;23.270;2023-06-14T10:37:31;35.10;;;31.33;;
3633;SDS011;1833;42.718;23.270;2023-06-14T10:39:59;36.63;;;33.17;;
3633;SDS011;1833;42.718;23.270;2023-06-14T10:42:31;37.13;;;33.30;;
3633;SDS011;1833;42.718;23.270;2023-06-14T10:44:58;38.43;;;34.53;;
3633;SDS011;1833;42.718;23.270;2023-06-14T10:47:26;36.80;;;33.15;;
3633;SDS011;1833;42.718;23.270;2023-06-14T10:49:55;37.40;;;33.90;;
3633;SDS011;1833;42.718;23.270;2023-06-14T10:52:25;38.03;;;34.58;;
3633;SDS011;1833;42.718;23.270;2023-06-14T10:54:56;38.75;;;34.97;;
3633;SDS011;1833;42.718;23.270;2023-06-14T10:57:25;37.33;;;33.50;;
3633;SDS011;1833;42.718;23.270;2023-06-14T10:59:53;36.85;;;33.17;;
3633;SDS011;1833;42.718;23.270;2023-06-14T11:02:27;37.00;;;33.60;;
3633;SDS011;1833;42.718;23.270;2023-06-14T11:05:05;38.35;;;34.60;;
3633;SDS011;1833;42.718;23.270;2023-06-14T11:10:20;38.45;;;34.25;;
3633;SDS011;1833;42.718;23.270;2023-06-14T11:12:52;36.75;;;33.25;;
3633;SDS011;1833;42.718;23.270;2023-06-14T11:15:27;37.80;;;34.13;;
3633;SDS011;1833;42.718;23.270;2023-06-14T11:17:55;36.90;;;33.22;;
3633;SDS011;1833;42.718;23.270;2023-06-14T11:20:26;38.43;;;34.50;;
3633;SDS011;1833;42.718;23.270;2023-06-14T11:22:53;37.83;;;34.23;;
3633;SDS011;1833;42.718;23.270;2023-06-14T11:25:21;38.40;;;34.40;;
3633;SDS011;1833;42.718;23.270;2023-06-14T11:27:49;37.47;;;33.90;;
3633;SDS011;1833;42.718;23.270;2023-06-14T11:30:16;37.83;;;34.05;;
3633;SDS011;1833;42.718;23.270;2023-06-14T11:32:45;37.90;;;34.30;;
3633;SDS011;1833;42.718;23.270;2023-06-14T11:35:13;39.03;;;35.30;;
3633;SDS011;1833;42.718;23.270;2023-06-14T11:37:42;38.80;;;34.92;;
3633;SDS011;1833;42.718;23.270;2023-06-14T11:40:10;37.70;;;34.08;;
3633;SDS011;1833;42.718;23.270;2023-06-14T11:42:38;36.08;;;32.67;;
3633;SDS011;1833;42.718;23.270;2023-06-14T11:45:07;38.20;;;34.40;;
3633;SDS011;1833;42.718;23.270;2023-06-14T11:47:34;36.55;;;33.25;;
3633;SDS011;1833;42.718;23.270;2023-06-14T11:50:02;37.13;;;33.30;;
3633;SDS011;1833;42.718;23.270;2023-06-14T11:52:30;35.35;;;31.90;;
3633;SDS011;1833;42.718;23.270;2023-06-14T11:54:59;39.53;;;35.88;;
3633;SDS011;1833;42.718;23.270;2023-06-14T11:57:27;38.47;;;34.50;;
3633;SDS011;1833;42.718;23.270;2023-06-14T11:59:55;36.37;;;33.03;;
3633;SDS011;1833;42.718;23.270;2023-06-14T12:02:22;39.70;;;35.53;;
3633;SDS011;1833;42.718;23.270;2023-06-14T12:04:50;38.10;;;34.53;;
3633;SDS011;1833;42.718;23.270;2023-06-14T12:07:18;37.50;;;33.97;;
3633;SDS011;1833;42.718;23.270;2023-06-14T12:12:29;36.00;;;32.70;;
3633;SDS011;1833;42.718;23.270;2023-06-14T12:14:56;37.77;;;34.30;;
3633;SDS011;1833;42.718;23.270;2023-06-14T12:17:24;38.00;;;34.50;;
3633;SDS011;1833;42.718;23.270;2023-06-14T12:19:53;36.07;;;32.87;;
3633;SDS011;1833;42.718;23.270;2023-06-14T12:22:20;34.60;;;31.40;;
3633;SDS011;1833;42.718;23.270;2023-06-14T12:24:48;33.93;;;30.93;;
3633;SDS011;1833;42.718;23.270;2023-06-14T12:27:15;36.83;;;33.37;;
3633;SDS011;1833;42.718;23.270;2023-06-14T12:29:46;34.83;;;31.60;;
3633;SDS011;1833;42.718;23.270;2023-06-14T12:32:13;34.90;;;31.70;;
3633;SDS011;1833;42.718;23.270;2023-06-14T12:34:40;35.67;;;32.57;;
3633;SDS011;1833;42.718;23.270;2023-06-14T12:37:08;34.30;;;31.10;;
3633;SDS011;1833;42.718;23.270;2023-06-14T12:39:35;36.83;;;33.10;;
3633;SDS011;1833;42.718;23.270;2023-06-14T12:42:04;37.17;;;33.03;;
3633;SDS011;1833;42.718;23.270;2023-06-14T12:44:32;34.83;;;31.83;;
3633;SDS011;1833;42.718;23.270;2023-06-14T12:47:07;34.57;;;31.40;;
3633;SDS011;1833;42.718;23.270;2023-06-14T12:49:34;36.43;;;32.60;;
3633;SDS011;1833;42.718;23.270;2023-06-14T12:52:01;35.73;;;32.60;;
3633;SDS011;1833;42.718;23.270;2023-06-14T12:54:28;32.40;;;29.50;;
3633;SDS011;1833;42.718;23.270;2023-06-14T12:56:56;34.57;;;31.47;;
3633;SDS011;1833;42.718;23.270;2023-06-14T12:59:23;33.53;;;30.47;;
3633;SDS011;1833;42.718;23.270;2023-06-14T13:01:50;35.27;;;32.17;;
3633;SDS011;1833;42.718;23.270;2023-06-14T13:04:20;35.20;;;31.90;;
3633;SDS011;1833;42.718;23.270;2023-06-14T13:06:47;36.23;;;33.10;;
3633;SDS011;1833;42.718;23.270;2023-06-14T13:09:14;33.83;;;30.80;;
3633;SDS011;1833;42.718;23.270;2023-06-14T13:11:41;35.00;;;31.77;;
3633;SDS011;1833;42.718;23.270;2023-06-14T13:14:11;33.73;;;30.83;;
3633;SDS011;1833;42.718;23.270;2023-06-14T13:16:38;33.10;;;30.10;;
3633;SDS011;1833;42.718;23.270;2023-06-14T13:19:05;36.90;;;33.67;;
3633;SDS011;1833;42.718;23.270;2023-06-14T13:21:34;35.13;;;32.13;;
3633;SDS011;1833;42.718;23.270;2023-06-14T13:24:01;34.50;;;31.30;;
3633;SDS011;1833;42.718;23.270;2023-06-14T13:26:28;34.50;;;31.50;;
3633;SDS011;1833;42.718;23.270;2023-06-14T13:28:55;33.83;;;30.40;;
3633;SDS011;1833;42.718;23.270;2023-06-14T13:31:23;34.97;;;31.70;;
3633;SDS011;1833;42.718;23.270;2023-06-14T13:33:50;32.50;;;29.80;;
3633;SDS011;1833;42.718;23.270;2023-06-14T13:36:17;32.07;;;29.17;;
3633;SDS011;1833;42.718;23.270;2023-06-14T13:38:46;32.17;;;29.37;;
3633;SDS011;1833;42.718;23.270;2023-06-14T13:41:13;32.17;;;29.20;;
3633;SDS011;1833;42.718;23.270;2023-06-14T13:43:40;30.00;;;27.40;;
3633;SDS011;1833;42.718;23.270;2023-06-14T13:46:08;28.77;;;26.37;;
3633;SDS011;1833;42.718;23.270;2023-06-14T13:48:35;32.27;;;28.93;;
3633;SDS011;1833;42.718;23.270;2023-06-14T13:51:02;26.73;;;24.63;;
3633;SDS011;1833;42.718;23.270;2023-06-14T13:53:30;26.40;;;24.20;;
3633;SDS011;1833;42.718;23.270;2023-06-14T13:55:58;26.43;;;24.30;;
3633;SDS011;1833;42.718;23.270;2023-06-14T13:58:25;27.63;;;25.53;;
3633;SDS011;1833;42.718;23.270;2023-06-14T14:00:54;26.90;;;24.90;;
3633;SDS011;1833;42.718;23.270;2023-06-14T14:03:21;29.27;;;26.53;;
3633;SDS011;1833;42.718;23.270;2023-06-14T14:05:49;27.47;;;25.37;;
3633;SDS011;1833;42.718;23.270;2023-06-14T14:08:16;26.40;;;24.30;;
3633;SDS011;1833;42.718;23.270;2023-06-14T14:10:43;25.60;;;23.70;;
3633;SDS011;1833;42.718;23.270;2023-06-14T14:13:13;28.33;;;26.00;;
3633;SDS011;1833;42.718;23.270;2023-06-14T14:15:40;26.50;;;24.40;;
3633;SDS011;1833;42.718;23.270;2023-06-14T14:18:07;29.63;;;26.83;;
3633;SDS011;1833;42.718;23.270;2023-06-14T14:20:35;28.30;;;25.60;;
3633;SDS011;1833;42.718;23.270;2023-06-14T14:23:02;29.17;;;26.60;;
3633;SDS011;1833;42.718;23.270;2023-06-14T14:25:29;29.50;;;26.90;;
3633;SDS011;1833;42.718;23.270;2023-06-14T14:27:57;29.83;;;27.40;;
3633;SDS011;1833;42.718;23.270;2023-06-14T14:30:25;27.43;;;25.33;;
3633;SDS011;1833;42.718;23.270;2023-06-14T14:32:53;27.47;;;25.27;;
3633;SDS011;1833;42.718;23.270;2023-06-14T14:35:20;26.60;;;24.50;;
3633;SDS011;1833;42.718;23.270;2023-06-14T14:37:49;26.27;;;24.07;;
3633;SDS011;1833;42.718;23.270;2023-06-14T14:40:17;27.70;;;25.23;;
3633;SDS011;1833;42.718;23.270;2023-06-14T14:42:44;28.73;;;26.53;;
3633;SDS011;1833;42.718;23.270;2023-06-14T14:45:11;29.50;;;27.00;;